sensor_id;sensor_type;location;lat;lon;timestamp;P1;durP1;ratioP1;P2;durP2;ratioP2
44276;SDS011;29973;43.742;1.236;2023-02-11T00:00:09;54.55;;;23.55;;
44276;SDS011;29973;43.742;1.236;2023-02-11T00:02:36;48.65;;;22.95;;
44276;SDS011;29973;43.742;1.236;2023-02-11T00:05:01;41.35;;;22.02;;
44276;SDS011;29973;43.742;1.236;2023-02-11T00:07:28;48.15;;;23.40;;
44276;SDS011;29973;43.742;1.236;2023-02-11T00:09:54;49.67;;;23.15;;
44276;SDS011;29973;43.742;1.236;2023-02-11T00:12:20;43.65;;;21.48;;
44276;SDS011;29973;43.742;1.236;2023-02-11T00:14:46;49.78;;;21.85;;
44276;SDS011;29973;43.742;1.236;2023-02-11T00:17:12;38.85;;;20.85;;
44276;SDS011;29973;43.742;1.236;2023-02-11T00:19:38;40.30;;;19.30;;
44276;SDS011;29973;43.742;1.236;2023-02-11T00:22:04;39.13;;;19.75;;
44276;SDS011;29973;43.742;1.236;2023-02-11T00:24:30;38.70;;;19.02;;
44276;SDS011;29973;43.742;1.236;2023-02-11T00:26:56;44.20;;;20.05;;
44276;SDS011;29973;43.742;1.236;2023-02-11T00:29:21;42.85;;;20.60;;
44276;SDS011;29973;43.742;1.236;2023-02-11T00:31:47;60.85;;;24.50;;
44276;SDS011;29973;43.742;1.236;2023-02-11T00:34:13;65.13;;;26.40;;
44276;SDS011;29973;43.742;1.236;2023-02-11T00:36:38;61.58;;;26.35;;
44276;SDS011;29973;43.742;1.236;2023-02-11T00:39:05;64.60;;;24.42;;
44276;SDS011;29973;43.742;1.236;2023-02-11T00:41:31;59.65;;;25.48;;
44276;SDS011;29973;43.742;1.236;2023-02-11T00:43:57;63.20;;;25.17;;
44276;SDS011;29973;43.742;1.236;2023-02-11T00:46:23;62.83;;;24.45;;
44276;SDS011;29973;43.742;1.236;2023-02-11T00:48:49;59.08;;;27.25;;
44276;SDS011;29973;43.742;1.236;2023-02-11T00:51:21;78.57;;;25.52;;
44276;SDS011;29973;43.742;1.236;2023-02-11T00:53:48;58.58;;;24.48;;
44276;SDS011;29973;43.742;1.236;2023-02-11T00:56:13;48.55;;;22.50;;
44276;SDS011;29973;43.742;1.236;2023-02-11T00:58:39;64.20;;;25.20;;
44276;SDS011;29973;43.742;1.236;2023-02-11T01:01:05;52.78;;;23.77;;
44276;SDS011;29973;43.742;1.236;2023-02-11T01:03:31;54.53;;;25.05;;
44276;SDS011;29973;43.742;1.236;2023-02-11T01:05:57;60.97;;;25.80;;
44276;SDS011;29973;43.742;1.236;2023-02-11T01:08:23;62.50;;;24.15;;
44276;SDS011;29973;43.742;1.236;2023-02-11T01:10:56;53.15;;;23.52;;
44276;SDS011;29973;43.742;1.236;2023-02-11T01:13:24;51.10;;;22.38;;
44276;SDS011;29973;43.742;1.236;2023-02-11T01:15:50;50.75;;;24.48;;
44276;SDS011;29973;43.742;1.236;2023-02-11T01:18:16;65.45;;;25.08;;
44276;SDS011;29973;43.742;1.236;2023-02-11T01:20:41;45.03;;;22.48;;
44276;SDS011;29973;43.742;1.236;2023-02-11T01:23:07;48.58;;;24.40;;
44276;SDS011;29973;43.742;1.236;2023-02-11T01:25:33;43.80;;;22.75;;
44276;SDS011;29973;43.742;1.236;2023-02-11T01:27:59;46.90;;;23.40;;
44276;SDS011;29973;43.742;1.236;2023-02-11T01:30:24;47.08;;;23.17;;
44276;SDS011;29973;43.742;1.236;2023-02-11T01:32:50;48.35;;;22.73;;
44276;SDS011;29973;43.742;1.236;2023-02-11T01:35:16;43.00;;;22.35;;
44276;SDS011;29973;43.742;1.236;2023-02-11T01:37:41;49.88;;;22.60;;
44276;SDS011;29973;43.742;1.236;2023-02-11T01:40:11;57.67;;;22.70;;
44276;SDS011;29973;43.742;1.236;2023-02-11T01:42:38;56.17;;;25.45;;
44276;SDS011;29973;43.742;1.236;2023-02-11T01:48:08;43.03;;;23.17;;
44276;SDS011;29973;43.742;1.236;2023-02-11T01:50:38;45.42;;;23.55;;
44276;SDS011;29973;43.742;1.236;2023-02-11T01:53:05;47.08;;;23.77;;
44276;SDS011;29973;43.742;1.236;2023-02-11T01:55:51;45.30;;;21.83;;
44276;SDS011;29973;43.742;1.236;2023-02-11T01:58:37;45.05;;;22.33;;
44276;SDS011;29973;43.742;1.236;2023-02-11T02:01:05;49.60;;;22.85;;
44276;SDS011;29973;43.742;1.236;2023-02-11T02:03:32;43.13;;;22.08;;
44276;SDS011;29973;43.742;1.236;2023-02-11T02:06:05;41.70;;;21.42;;
44276;SDS011;29973;43.742;1.236;2023-02-11T02:08:40;42.35;;;20.55;;
44276;SDS011;29973;43.742;1.236;2023-02-11T02:11:11;42.50;;;20.17;;
44276;SDS011;29973;43.742;1.236;2023-02-11T02:13:37;46.47;;;22.67;;
44276;SDS011;29973;43.742;1.236;2023-02-11T02:16:04;43.83;;;20.42;;
44276;SDS011;29973;43.742;1.236;2023-02-11T02:18:53;43.95;;;20.88;;
44276;SDS011;29973;43.742;1.236;2023-02-11T02:37:58;62.38;;;28.58;;
44276;SDS011;29973;43.742;1.236;2023-02-11T02:43:53;47.63;;;22.77;;
44276;SDS011;29973;43.742;1.236;2023-02-11T02:46:24;47.03;;;23.13;;
44276;SDS011;29973;43.742;1.236;2023-02-11T02:48:52;48.70;;;23.10;;
44276;SDS011;29973;43.742;1.236;2023-02-11T02:54:12;47.13;;;22.60;;
44276;SDS011;29973;43.742;1.236;2023-02-11T02:56:51;57.03;;;25.77;;
44276;SDS011;29973;43.742;1.236;2023-02-11T02:59:56;64.63;;;25.17;;
44276;SDS011;29973;43.742;1.236;2023-02-11T03:02:42;73.45;;;28.33;;
44276;SDS011;29973;43.742;1.236;2023-02-11T03:08:48;54.72;;;25.52;;
44276;SDS011;29973;43.742;1.236;2023-02-11T03:11:20;52.38;;;24.38;;
44276;SDS011;29973;43.742;1.236;2023-02-11T03:13:47;57.17;;;26.90;;
44276;SDS011;29973;43.742;1.236;2023-02-11T03:16:15;69.30;;;32.15;;
44276;SDS011;29973;43.742;1.236;2023-02-11T03:18:49;62.97;;;29.38;;
44276;SDS011;29973;43.742;1.236;2023-02-11T03:21:32;69.10;;;30.02;;
44276;SDS011;29973;43.742;1.236;2023-02-11T03:24:06;65.38;;;32.30;;
44276;SDS011;29973;43.742;1.236;2023-02-11T03:26:39;64.03;;;32.20;;
44276;SDS011;29973;43.742;1.236;2023-02-11T03:29:16;69.18;;;33.05;;
44276;SDS011;29973;43.742;1.236;2023-02-11T03:40:27;64.70;;;31.77;;
44276;SDS011;29973;43.742;1.236;2023-02-11T03:42:50;58.95;;;30.95;;
44276;SDS011;29973;43.742;1.236;2023-02-11T03:45:26;65.50;;;32.75;;
44276;SDS011;29973;43.742;1.236;2023-02-11T03:48:00;77.75;;;37.17;;
44276;SDS011;29973;43.742;1.236;2023-02-11T03:50:30;71.53;;;32.92;;
44276;SDS011;29973;43.742;1.236;2023-02-11T03:52:58;65.18;;;32.08;;
44276;SDS011;29973;43.742;1.236;2023-02-11T03:55:26;77.55;;;33.78;;
44276;SDS011;29973;43.742;1.236;2023-02-11T03:57:54;64.53;;;33.03;;
44276;SDS011;29973;43.742;1.236;2023-02-11T04:00:20;70.22;;;33.08;;
44276;SDS011;29973;43.742;1.236;2023-02-11T04:02:53;65.07;;;32.90;;
44276;SDS011;29973;43.742;1.236;2023-02-11T04:05:19;70.70;;;33.65;;
44276;SDS011;29973;43.742;1.236;2023-02-11T04:07:44;59.85;;;32.65;;
44276;SDS011;29973;43.742;1.236;2023-02-11T04:10:10;61.92;;;30.65;;
44276;SDS011;29973;43.742;1.236;2023-02-11T04:12:36;61.63;;;30.23;;
44276;SDS011;29973;43.742;1.236;2023-02-11T04:15:02;70.07;;;31.50;;
44276;SDS011;29973;43.742;1.236;2023-02-11T04:17:28;67.30;;;32.38;;
44276;SDS011;29973;43.742;1.236;2023-02-11T04:19:54;80.10;;;33.60;;
44276;SDS011;29973;43.742;1.236;2023-02-11T04:22:20;67.90;;;32.15;;
44276;SDS011;29973;43.742;1.236;2023-02-11T04:24:45;73.43;;;32.28;;
44276;SDS011;29973;43.742;1.236;2023-02-11T04:27:11;63.47;;;29.98;;
44276;SDS011;29973;43.742;1.236;2023-02-11T04:29:37;60.17;;;29.33;;
44276;SDS011;29973;43.742;1.236;2023-02-11T04:32:03;58.22;;;28.98;;
44276;SDS011;29973;43.742;1.236;2023-02-11T04:34:28;62.85;;;29.80;;
44276;SDS011;29973;43.742;1.236;2023-02-11T04:36:54;61.15;;;29.77;;
44276;SDS011;29973;43.742;1.236;2023-02-11T04:39:20;56.28;;;30.20;;
44276;SDS011;29973;43.742;1.236;2023-02-11T04:41:45;56.90;;;29.60;;
44276;SDS011;29973;43.742;1.236;2023-02-11T04:44:11;65.13;;;30.15;;
44276;SDS011;29973;43.742;1.236;2023-02-11T04:46:37;61.58;;;31.58;;
44276;SDS011;29973;43.742;1.236;2023-02-11T04:49:02;61.67;;;30.58;;
44276;SDS011;29973;43.742;1.236;2023-02-11T04:51:28;60.20;;;31.80;;
44276;SDS011;29973;43.742;1.236;2023-02-11T04:53:54;64.53;;;32.10;;
44276;SDS011;29973;43.742;1.236;2023-02-11T04:56:19;70.05;;;32.70;;
44276;SDS011;29973;43.742;1.236;2023-02-11T04:58:45;67.38;;;31.90;;
44276;SDS011;29973;43.742;1.236;2023-02-11T05:01:12;62.97;;;31.33;;
44276;SDS011;29973;43.742;1.236;2023-02-11T05:03:39;66.55;;;32.72;;
44276;SDS011;29973;43.742;1.236;2023-02-11T05:06:05;64.15;;;31.60;;
44276;SDS011;29973;43.742;1.236;2023-02-11T05:08:31;64.65;;;30.33;;
44276;SDS011;29973;43.742;1.236;2023-02-11T05:10:57;72.47;;;32.67;;
44276;SDS011;29973;43.742;1.236;2023-02-11T05:13:23;68.55;;;34.25;;
44276;SDS011;29973;43.742;1.236;2023-02-11T05:15:49;66.88;;;31.73;;
44276;SDS011;29973;43.742;1.236;2023-02-11T05:18:14;74.57;;;33.38;;
44276;SDS011;29973;43.742;1.236;2023-02-11T05:20:40;69.40;;;33.00;;
44276;SDS011;29973;43.742;1.236;2023-02-11T05:23:07;65.60;;;32.25;;
44276;SDS011;29973;43.742;1.236;2023-02-11T05:25:33;66.03;;;32.92;;
44276;SDS011;29973;43.742;1.236;2023-02-11T05:27:58;69.88;;;33.33;;
44276;SDS011;29973;43.742;1.236;2023-02-11T05:30:24;69.65;;;33.13;;
44276;SDS011;29973;43.742;1.236;2023-02-11T05:32:50;65.03;;;33.63;;
44276;SDS011;29973;43.742;1.236;2023-02-11T05:35:16;67.32;;;32.40;;
44276;SDS011;29973;43.742;1.236;2023-02-11T05:37:42;73.93;;;35.33;;
44276;SDS011;29973;43.742;1.236;2023-02-11T05:40:08;68.53;;;32.90;;
44276;SDS011;29973;43.742;1.236;2023-02-11T05:42:34;66.88;;;32.83;;
44276;SDS011;29973;43.742;1.236;2023-02-11T05:45:00;62.85;;;32.22;;
44276;SDS011;29973;43.742;1.236;2023-02-11T05:47:25;68.85;;;31.85;;
44276;SDS011;29973;43.742;1.236;2023-02-11T05:49:51;62.28;;;31.45;;
44276;SDS011;29973;43.742;1.236;2023-02-11T05:52:18;64.43;;;31.52;;
44276;SDS011;29973;43.742;1.236;2023-02-11T05:54:44;68.25;;;31.35;;
44276;SDS011;29973;43.742;1.236;2023-02-11T05:57:10;63.65;;;31.77;;
44276;SDS011;29973;43.742;1.236;2023-02-11T05:59:35;62.78;;;30.15;;
44276;SDS011;29973;43.742;1.236;2023-02-11T06:02:01;62.22;;;31.48;;
44276;SDS011;29973;43.742;1.236;2023-02-11T06:04:27;66.22;;;30.98;;
44276;SDS011;29973;43.742;1.236;2023-02-11T06:06:52;68.38;;;32.03;;
44276;SDS011;29973;43.742;1.236;2023-02-11T06:09:18;61.47;;;30.45;;
44276;SDS011;29973;43.742;1.236;2023-02-11T06:11:44;64.60;;;31.15;;
44276;SDS011;29973;43.742;1.236;2023-02-11T06:14:10;62.92;;;30.73;;
44276;SDS011;29973;43.742;1.236;2023-02-11T06:16:35;73.80;;;33.67;;
44276;SDS011;29973;43.742;1.236;2023-02-11T06:19:01;77.18;;;33.05;;
44276;SDS011;29973;43.742;1.236;2023-02-11T06:21:27;65.07;;;33.92;;
44276;SDS011;29973;43.742;1.236;2023-02-11T06:23:52;65.25;;;33.78;;
44276;SDS011;29973;43.742;1.236;2023-02-11T06:26:20;71.47;;;32.75;;
44276;SDS011;29973;43.742;1.236;2023-02-11T06:28:47;58.25;;;30.80;;
44276;SDS011;29973;43.742;1.236;2023-02-11T06:31:13;70.55;;;33.58;;
44276;SDS011;29973;43.742;1.236;2023-02-11T06:33:39;63.22;;;32.05;;
44276;SDS011;29973;43.742;1.236;2023-02-11T06:36:15;65.65;;;32.15;;
44276;SDS011;29973;43.742;1.236;2023-02-11T06:38:43;60.38;;;29.95;;
44276;SDS011;29973;43.742;1.236;2023-02-11T06:41:10;68.47;;;33.35;;
44276;SDS011;29973;43.742;1.236;2023-02-11T06:43:37;68.57;;;34.10;;
44276;SDS011;29973;43.742;1.236;2023-02-11T06:46:04;66.47;;;33.22;;
44276;SDS011;29973;43.742;1.236;2023-02-11T06:48:39;71.72;;;34.47;;
44276;SDS011;29973;43.742;1.236;2023-02-11T06:51:06;69.93;;;32.75;;
44276;SDS011;29973;43.742;1.236;2023-02-11T06:53:34;73.35;;;32.88;;
44276;SDS011;29973;43.742;1.236;2023-02-11T06:56:02;73.00;;;33.78;;
44276;SDS011;29973;43.742;1.236;2023-02-11T06:58:29;66.85;;;32.60;;
44276;SDS011;29973;43.742;1.236;2023-02-11T07:00:55;68.38;;;33.15;;
44276;SDS011;29973;43.742;1.236;2023-02-11T07:03:21;75.45;;;33.78;;
44276;SDS011;29973;43.742;1.236;2023-02-11T07:05:47;66.70;;;33.42;;
44276;SDS011;29973;43.742;1.236;2023-02-11T07:08:13;70.80;;;34.20;;
44276;SDS011;29973;43.742;1.236;2023-02-11T07:10:39;67.05;;;33.08;;
44276;SDS011;29973;43.742;1.236;2023-02-11T07:13:05;60.08;;;29.05;;
44276;SDS011;29973;43.742;1.236;2023-02-11T07:15:31;76.57;;;36.05;;
44276;SDS011;29973;43.742;1.236;2023-02-11T07:17:57;69.18;;;34.65;;
44276;SDS011;29973;43.742;1.236;2023-02-11T07:20:23;69.43;;;33.65;;
44276;SDS011;29973;43.742;1.236;2023-02-11T07:22:49;76.40;;;35.58;;
44276;SDS011;29973;43.742;1.236;2023-02-11T07:25:15;63.83;;;32.72;;
44276;SDS011;29973;43.742;1.236;2023-02-11T07:27:41;70.47;;;33.50;;
44276;SDS011;29973;43.742;1.236;2023-02-11T07:30:07;72.25;;;33.22;;
44276;SDS011;29973;43.742;1.236;2023-02-11T07:32:33;77.22;;;32.95;;
44276;SDS011;29973;43.742;1.236;2023-02-11T07:35:06;66.63;;;31.80;;
44276;SDS011;29973;43.742;1.236;2023-02-11T07:37:32;66.38;;;33.65;;
44276;SDS011;29973;43.742;1.236;2023-02-11T07:39:59;61.60;;;31.95;;
44276;SDS011;29973;43.742;1.236;2023-02-11T07:42:24;55.50;;;30.40;;
44276;SDS011;29973;43.742;1.236;2023-02-11T07:44:50;63.13;;;30.35;;
44276;SDS011;29973;43.742;1.236;2023-02-11T07:47:16;57.13;;;31.05;;
44276;SDS011;29973;43.742;1.236;2023-02-11T07:49:42;62.38;;;31.13;;
44276;SDS011;29973;43.742;1.236;2023-02-11T07:52:08;61.58;;;31.52;;
44276;SDS011;29973;43.742;1.236;2023-02-11T07:54:33;68.65;;;33.22;;
44276;SDS011;29973;43.742;1.236;2023-02-11T07:56:59;65.28;;;34.50;;
44276;SDS011;29973;43.742;1.236;2023-02-11T07:59:25;69.78;;;36.33;;
44276;SDS011;29973;43.742;1.236;2023-02-11T08:01:51;85.60;;;37.25;;
44276;SDS011;29973;43.742;1.236;2023-02-11T08:04:17;86.03;;;39.97;;
44276;SDS011;29973;43.742;1.236;2023-02-11T08:06:42;78.68;;;38.20;;
44276;SDS011;29973;43.742;1.236;2023-02-11T08:09:10;82.85;;;39.65;;
44276;SDS011;29973;43.742;1.236;2023-02-11T08:11:40;103.80;;;43.70;;
44276;SDS011;29973;43.742;1.236;2023-02-11T08:14:07;88.43;;;43.33;;
44276;SDS011;29973;43.742;1.236;2023-02-11T08:16:35;88.57;;;43.28;;
44276;SDS011;29973;43.742;1.236;2023-02-11T08:19:07;95.05;;;43.13;;
44276;SDS011;29973;43.742;1.236;2023-02-11T08:21:37;80.38;;;40.38;;
44276;SDS011;29973;43.742;1.236;2023-02-11T08:24:03;82.03;;;41.22;;
44276;SDS011;29973;43.742;1.236;2023-02-11T08:26:30;79.80;;;39.22;;
44276;SDS011;29973;43.742;1.236;2023-02-11T08:28:58;84.65;;;39.63;;
44276;SDS011;29973;43.742;1.236;2023-02-11T08:31:26;77.63;;;41.40;;
44276;SDS011;29973;43.742;1.236;2023-02-11T08:33:54;77.63;;;40.15;;
44276;SDS011;29973;43.742;1.236;2023-02-11T08:36:26;81.28;;;39.72;;
44276;SDS011;29973;43.742;1.236;2023-02-11T08:38:54;74.03;;;38.67;;
44276;SDS011;29973;43.742;1.236;2023-02-11T08:41:24;80.37;;;39.30;;
44276;SDS011;29973;43.742;1.236;2023-02-11T08:43:50;66.78;;;36.63;;
44276;SDS011;29973;43.742;1.236;2023-02-11T08:46:17;69.93;;;35.08;;
44276;SDS011;29973;43.742;1.236;2023-02-11T08:48:44;66.53;;;35.10;;
44276;SDS011;29973;43.742;1.236;2023-02-11T08:51:12;65.68;;;34.42;;
44276;SDS011;29973;43.742;1.236;2023-02-11T08:53:40;63.28;;;33.50;;
44276;SDS011;29973;43.742;1.236;2023-02-11T08:56:07;60.80;;;33.50;;
44276;SDS011;29973;43.742;1.236;2023-02-11T08:58:34;58.75;;;32.92;;
44276;SDS011;29973;43.742;1.236;2023-02-11T09:00:59;62.85;;;31.88;;
44276;SDS011;29973;43.742;1.236;2023-02-11T09:03:25;61.55;;;31.25;;
44276;SDS011;29973;43.742;1.236;2023-02-11T09:05:51;51.55;;;29.50;;
44276;SDS011;29973;43.742;1.236;2023-02-11T09:08:17;59.95;;;31.92;;
44276;SDS011;29973;43.742;1.236;2023-02-11T09:10:44;53.85;;;30.08;;
44276;SDS011;29973;43.742;1.236;2023-02-11T09:13:10;49.28;;;29.83;;
44276;SDS011;29973;43.742;1.236;2023-02-11T09:15:36;52.30;;;31.42;;
44276;SDS011;29973;43.742;1.236;2023-02-11T09:18:02;53.20;;;29.92;;
44276;SDS011;29973;43.742;1.236;2023-02-11T09:20:28;52.53;;;30.75;;
44276;SDS011;29973;43.742;1.236;2023-02-11T09:22:55;55.63;;;28.45;;
44276;SDS011;29973;43.742;1.236;2023-02-11T09:25:23;49.83;;;27.65;;
44276;SDS011;29973;43.742;1.236;2023-02-11T09:27:49;61.85;;;29.17;;
44276;SDS011;29973;43.742;1.236;2023-02-11T09:30:16;50.92;;;26.42;;
44276;SDS011;29973;43.742;1.236;2023-02-11T09:32:42;48.75;;;26.80;;
44276;SDS011;29973;43.742;1.236;2023-02-11T09:35:07;46.88;;;26.38;;
44276;SDS011;29973;43.742;1.236;2023-02-11T09:37:33;46.40;;;25.75;;
44276;SDS011;29973;43.742;1.236;2023-02-11T09:39:59;57.95;;;28.42;;
44276;SDS011;29973;43.742;1.236;2023-02-11T09:45:27;46.42;;;27.13;;
44276;SDS011;29973;43.742;1.236;2023-02-11T09:47:58;43.95;;;25.05;;
44276;SDS011;29973;43.742;1.236;2023-02-11T09:50:35;43.28;;;22.98;;
44276;SDS011;29973;43.742;1.236;2023-02-11T09:53:13;42.78;;;21.52;;
44276;SDS011;29973;43.742;1.236;2023-02-11T09:55:50;35.63;;;19.85;;
44276;SDS011;29973;43.742;1.236;2023-02-11T09:58:34;35.10;;;20.65;;
44276;SDS011;29973;43.742;1.236;2023-02-11T10:11:43;34.92;;;18.38;;
44276;SDS011;29973;43.742;1.236;2023-02-11T10:16:52;28.67;;;17.17;;
44276;SDS011;29973;43.742;1.236;2023-02-11T10:22:26;28.70;;;17.40;;
44276;SDS011;29973;43.742;1.236;2023-02-11T10:24:55;36.67;;;17.98;;
44276;SDS011;29973;43.742;1.236;2023-02-11T10:27:29;25.55;;;15.35;;
44276;SDS011;29973;43.742;1.236;2023-02-11T10:30:05;27.52;;;16.25;;
44276;SDS011;29973;43.742;1.236;2023-02-11T10:32:53;25.77;;;16.45;;
44276;SDS011;29973;43.742;1.236;2023-02-11T10:35:26;26.38;;;16.10;;
44276;SDS011;29973;43.742;1.236;2023-02-11T10:37:52;27.77;;;16.23;;
44276;SDS011;29973;43.742;1.236;2023-02-11T10:40:21;26.33;;;15.70;;
44276;SDS011;29973;43.742;1.236;2023-02-11T10:42:50;21.75;;;15.25;;
44276;SDS011;29973;43.742;1.236;2023-02-11T10:45:21;24.17;;;15.48;;
44276;SDS011;29973;43.742;1.236;2023-02-11T10:47:51;30.13;;;16.27;;
44276;SDS011;29973;43.742;1.236;2023-02-11T10:50:22;28.02;;;16.55;;
44276;SDS011;29973;43.742;1.236;2023-02-11T10:52:49;23.90;;;16.17;;
44276;SDS011;29973;43.742;1.236;2023-02-11T10:57:59;26.35;;;16.33;;
44276;SDS011;29973;43.742;1.236;2023-02-11T11:03:00;26.50;;;16.00;;
44276;SDS011;29973;43.742;1.236;2023-02-11T11:05:44;25.00;;;16.15;;
44276;SDS011;29973;43.742;1.236;2023-02-11T11:08:13;25.75;;;15.90;;
44276;SDS011;29973;43.742;1.236;2023-02-11T11:10:46;22.40;;;16.35;;
44276;SDS011;29973;43.742;1.236;2023-02-11T11:13:34;25.38;;;15.23;;
44276;SDS011;29973;43.742;1.236;2023-02-11T11:18:38;28.45;;;14.63;;
44276;SDS011;29973;43.742;1.236;2023-02-11T11:21:05;22.45;;;14.70;;
44276;SDS011;29973;43.742;1.236;2023-02-11T11:23:37;18.58;;;14.38;;
44276;SDS011;29973;43.742;1.236;2023-02-11T11:26:10;24.08;;;14.30;;
44276;SDS011;29973;43.742;1.236;2023-02-11T11:28:39;19.95;;;14.20;;
44276;SDS011;29973;43.742;1.236;2023-02-11T11:34:02;20.23;;;14.77;;
44276;SDS011;29973;43.742;1.236;2023-02-11T11:36:44;18.88;;;14.18;;
44276;SDS011;29973;43.742;1.236;2023-02-11T11:41:49;22.30;;;14.88;;
44276;SDS011;29973;43.742;1.236;2023-02-11T11:44:23;22.02;;;14.73;;
44276;SDS011;29973;43.742;1.236;2023-02-11T11:46:50;20.60;;;15.05;;
44276;SDS011;29973;43.742;1.236;2023-02-11T11:49:41;21.65;;;13.90;;
44276;SDS011;29973;43.742;1.236;2023-02-11T11:52:31;21.15;;;14.43;;
44276;SDS011;29973;43.742;1.236;2023-02-11T11:55:15;20.38;;;14.13;;
44276;SDS011;29973;43.742;1.236;2023-02-11T11:57:43;20.98;;;13.32;;
44276;SDS011;29973;43.742;1.236;2023-02-11T12:00:13;23.20;;;13.90;;
44276;SDS011;29973;43.742;1.236;2023-02-11T12:11:11;23.75;;;13.85;;
44276;SDS011;29973;43.742;1.236;2023-02-11T12:19:17;19.70;;;13.27;;
44276;SDS011;29973;43.742;1.236;2023-02-11T12:33:15;18.88;;;12.30;;
44276;SDS011;29973;43.742;1.236;2023-02-11T12:36:00;18.75;;;12.90;;
44276;SDS011;29973;43.742;1.236;2023-02-11T12:39:33;17.40;;;12.38;;
44276;SDS011;29973;43.742;1.236;2023-02-11T12:55:48;20.70;;;12.43;;
44276;SDS011;29973;43.742;1.236;2023-02-11T12:58:20;15.68;;;11.93;;
44276;SDS011;29973;43.742;1.236;2023-02-11T13:03:27;17.35;;;11.07;;
44276;SDS011;29973;43.742;1.236;2023-02-11T13:06:14;13.35;;;10.68;;
44276;SDS011;29973;43.742;1.236;2023-02-11T13:11:29;19.10;;;10.73;;
44276;SDS011;29973;43.742;1.236;2023-02-11T13:16:48;15.65;;;11.32;;
44276;SDS011;29973;43.742;1.236;2023-02-11T13:24:50;18.30;;;10.60;;
44276;SDS011;29973;43.742;1.236;2023-02-11T13:36:25;14.98;;;10.32;;
44276;SDS011;29973;43.742;1.236;2023-02-11T13:38:26;15.77;;;11.27;;
44276;SDS011;29973;43.742;1.236;2023-02-11T13:43:42;14.88;;;10.80;;
44276;SDS011;29973;43.742;1.236;2023-02-11T13:46:09;16.75;;;10.88;;
44276;SDS011;29973;43.742;1.236;2023-02-11T13:48:49;15.27;;;10.68;;
44276;SDS011;29973;43.742;1.236;2023-02-11T13:51:18;15.80;;;11.52;;
44276;SDS011;29973;43.742;1.236;2023-02-11T13:54:06;15.63;;;11.02;;
44276;SDS011;29973;43.742;1.236;2023-02-11T13:56:43;18.50;;;10.77;;
44276;SDS011;29973;43.742;1.236;2023-02-11T13:59:43;15.27;;;9.98;;
44276;SDS011;29973;43.742;1.236;2023-02-11T14:08:29;18.15;;;11.38;;
44276;SDS011;29973;43.742;1.236;2023-02-11T14:10:57;16.58;;;10.70;;
44276;SDS011;29973;43.742;1.236;2023-02-11T14:13:31;17.23;;;11.43;;
44276;SDS011;29973;43.742;1.236;2023-02-11T14:23:40;16.13;;;11.85;;
44276;SDS011;29973;43.742;1.236;2023-02-11T14:28:44;14.25;;;10.13;;
44276;SDS011;29973;43.742;1.236;2023-02-11T14:41:45;19.00;;;11.50;;
44276;SDS011;29973;43.742;1.236;2023-02-11T14:44:14;15.75;;;10.90;;
44276;SDS011;29973;43.742;1.236;2023-02-11T14:46:47;16.10;;;11.98;;
44276;SDS011;29973;43.742;1.236;2023-02-11T14:49:25;16.83;;;11.35;;
44276;SDS011;29973;43.742;1.236;2023-02-11T14:51:52;16.10;;;10.43;;
44276;SDS011;29973;43.742;1.236;2023-02-11T14:54:21;17.23;;;10.60;;
44276;SDS011;29973;43.742;1.236;2023-02-11T14:59:39;18.20;;;10.18;;
44276;SDS011;29973;43.742;1.236;2023-02-11T15:02:20;13.60;;;10.07;;
44276;SDS011;29973;43.742;1.236;2023-02-11T15:04:47;16.63;;;10.30;;
44276;SDS011;29973;43.742;1.236;2023-02-11T15:07:12;17.05;;;10.68;;
44276;SDS011;29973;43.742;1.236;2023-02-11T15:09:40;15.70;;;11.15;;
44276;SDS011;29973;43.742;1.236;2023-02-11T15:12:19;16.13;;;11.30;;
44276;SDS011;29973;43.742;1.236;2023-02-11T15:14:53;16.17;;;12.10;;
44276;SDS011;29973;43.742;1.236;2023-02-11T15:17:22;18.20;;;10.98;;
44276;SDS011;29973;43.742;1.236;2023-02-11T15:19:52;17.80;;;11.23;;
44276;SDS011;29973;43.742;1.236;2023-02-11T15:22:27;14.95;;;10.68;;
44276;SDS011;29973;43.742;1.236;2023-02-11T15:25:01;16.13;;;10.80;;
44276;SDS011;29973;43.742;1.236;2023-02-11T15:27:43;14.70;;;10.57;;
44276;SDS011;29973;43.742;1.236;2023-02-11T15:32:50;15.13;;;10.05;;
44276;SDS011;29973;43.742;1.236;2023-02-11T15:35:23;16.30;;;10.38;;
44276;SDS011;29973;43.742;1.236;2023-02-11T15:37:52;19.25;;;11.13;;
44276;SDS011;29973;43.742;1.236;2023-02-11T15:40:23;20.15;;;12.07;;
44276;SDS011;29973;43.742;1.236;2023-02-11T15:42:59;20.48;;;11.00;;
44276;SDS011;29973;43.742;1.236;2023-02-11T15:48:33;19.45;;;10.68;;
44276;SDS011;29973;43.742;1.236;2023-02-11T15:51:11;15.57;;;10.25;;
44276;SDS011;29973;43.742;1.236;2023-02-11T15:53:57;14.52;;;10.20;;
44276;SDS011;29973;43.742;1.236;2023-02-11T15:56:28;15.23;;;10.10;;
44276;SDS011;29973;43.742;1.236;2023-02-11T15:58:57;15.05;;;10.20;;
44276;SDS011;29973;43.742;1.236;2023-02-11T16:01:32;17.15;;;11.13;;
44276;SDS011;29973;43.742;1.236;2023-02-11T16:04:01;19.85;;;11.65;;
44276;SDS011;29973;43.742;1.236;2023-02-11T16:06:40;19.35;;;11.20;;
44276;SDS011;29973;43.742;1.236;2023-02-11T16:11:33;15.23;;;10.05;;
44276;SDS011;29973;43.742;1.236;2023-02-11T16:14:01;19.20;;;10.38;;
44276;SDS011;29973;43.742;1.236;2023-02-11T16:16:45;17.20;;;9.90;;
44276;SDS011;29973;43.742;1.236;2023-02-11T16:21:42;22.40;;;11.25;;
44276;SDS011;29973;43.742;1.236;2023-02-11T16:24:19;27.23;;;18.58;;
44276;SDS011;29973;43.742;1.236;2023-02-11T16:26:57;18.40;;;11.48;;
44276;SDS011;29973;43.742;1.236;2023-02-11T16:29:26;20.33;;;11.50;;
44276;SDS011;29973;43.742;1.236;2023-02-11T16:32:03;20.85;;;11.48;;
44276;SDS011;29973;43.742;1.236;2023-02-11T16:34:38;17.75;;;11.07;;
44276;SDS011;29973;43.742;1.236;2023-02-11T16:37:04;15.27;;;10.15;;
44276;SDS011;29973;43.742;1.236;2023-02-11T16:39:30;18.10;;;11.82;;
44276;SDS011;29973;43.742;1.236;2023-02-11T16:41:56;19.98;;;11.38;;
44276;SDS011;29973;43.742;1.236;2023-02-11T16:44:22;19.35;;;11.55;;
44276;SDS011;29973;43.742;1.236;2023-02-11T16:46:48;21.67;;;12.02;;
44276;SDS011;29973;43.742;1.236;2023-02-11T16:51:44;20.45;;;10.48;;
44276;SDS011;29973;43.742;1.236;2023-02-11T16:54:13;20.75;;;11.50;;
44276;SDS011;29973;43.742;1.236;2023-02-11T16:56:40;16.30;;;10.13;;
44276;SDS011;29973;43.742;1.236;2023-02-11T16:59:06;21.52;;;12.07;;
44276;SDS011;29973;43.742;1.236;2023-02-11T17:01:32;21.13;;;13.13;;
44276;SDS011;29973;43.742;1.236;2023-02-11T17:03:59;30.63;;;15.35;;
44276;SDS011;29973;43.742;1.236;2023-02-11T17:06:26;26.45;;;14.40;;
44276;SDS011;29973;43.742;1.236;2023-02-11T17:08:52;33.17;;;17.27;;
44276;SDS011;29973;43.742;1.236;2023-02-11T17:11:17;24.58;;;14.55;;
44276;SDS011;29973;43.742;1.236;2023-02-11T17:13:44;34.15;;;18.45;;
44276;SDS011;29973;43.742;1.236;2023-02-11T17:16:20;34.75;;;18.52;;
44276;SDS011;29973;43.742;1.236;2023-02-11T17:18:48;29.02;;;15.88;;
44276;SDS011;29973;43.742;1.236;2023-02-11T17:21:15;28.48;;;14.48;;
44276;SDS011;29973;43.742;1.236;2023-02-11T17:23:41;33.40;;;17.10;;
44276;SDS011;29973;43.742;1.236;2023-02-11T17:26:07;40.33;;;19.30;;
44276;SDS011;29973;43.742;1.236;2023-02-11T17:28:33;49.80;;;22.05;;
44276;SDS011;29973;43.742;1.236;2023-02-11T17:30:59;50.85;;;21.92;;